createdAt,value
2022-09-28T00:01:25.034Z,12.40
2022-09-28T00:04:00.329Z,12.40
2022-09-28T00:06:30.685Z,12.42
2022-09-28T00:09:01.345Z,12.42
2022-09-28T00:11:29.691Z,12.42
2022-09-28T00:14:02.120Z,12.42
2022-09-28T00:16:34.638Z,12.41
2022-09-28T00:19:05.210Z,12.40
2022-09-28T00:21:36.623Z,12.40
2022-09-28T00:24:17.058Z,12.40
2022-09-28T00:26:50.041Z,12.39
2022-09-28T00:29:37.062Z,12.40
2022-09-28T00:32:11.299Z,12.39
2022-09-28T00:34:43.386Z,12.37
2022-09-28T00:37:12.749Z,12.36
2022-09-28T00:39:42.500Z,12.35
2022-09-28T00:42:19.929Z,12.35
2022-09-28T00:44:59.231Z,12.34
2022-09-28T00:47:49.567Z,12.32
2022-09-28T00:50:30.227Z,12.28
2022-09-28T00:53:16.227Z,12.24
2022-09-28T00:55:54.891Z,12.20
2022-09-28T00:58:30.350Z,12.18
2022-09-28T01:01:00.507Z,12.14
2022-09-28T01:03:29.084Z,12.09
2022-09-28T01:06:01.979Z,12.03
2022-09-28T01:08:32.711Z,11.98
2022-09-28T01:11:01.122Z,11.93
2022-09-28T01:13:33.310Z,11.87
2022-09-28T01:16:20.726Z,11.80
2022-09-28T01:18:51.334Z,11.72
2022-09-28T01:21:24.746Z,11.67
2022-09-28T01:24:14.740Z,11.61
2022-09-28T01:26:49.962Z,11.53
2022-09-28T01:29:30.129Z,11.46
2022-09-28T01:32:33.167Z,11.41
2022-09-28T01:35:20.979Z,11.36
2022-09-28T01:38:29.151Z,11.30
2022-09-28T01:41:00.470Z,11.20
2022-09-28T01:43:30.473Z,11.15
2022-09-28T01:46:19.739Z,11.09
2022-09-28T01:48:58.825Z,11.05
2022-09-28T01:51:43.242Z,11.01
2022-09-28T01:54:26.801Z,10.96
2022-09-28T01:57:03.061Z,10.90
2022-09-28T01:59:35.593Z,10.85
2022-09-28T02:02:12.411Z,10.78
2022-09-28T02:04:47.774Z,10.69
2022-09-28T02:07:26.275Z,10.61
2022-09-28T02:10:01.074Z,10.55
2022-09-28T02:12:46.712Z,10.52
2022-09-28T02:15:17.730Z,10.52
2022-09-28T02:17:48.216Z,10.53
2022-09-28T02:20:18.641Z,10.54
2022-09-28T02:22:53.416Z,10.56
2022-09-28T02:25:45.643Z,10.58
2022-09-28T02:28:13.955Z,10.61
2022-09-28T02:30:44.898Z,10.62
2022-09-28T02:33:28.042Z,10.63
2022-09-28T02:35:57.383Z,10.63
2022-09-28T02:38:26.722Z,10.62
2022-09-28T02:41:04.269Z,10.61
2022-09-28T02:43:50.793Z,10.58
2022-09-28T02:46:36.490Z,10.56
2022-09-28T02:49:22.326Z,10.55
2022-09-28T02:52:14.008Z,10.53
2022-09-28T02:55:04.335Z,10.51
2022-09-28T02:57:49.233Z,10.50
2022-09-28T03:00:22.988Z,10.48
2022-09-28T03:03:00.573Z,10.46
2022-09-28T03:05:54.380Z,10.43
2022-09-28T03:08:26.064Z,10.41
2022-09-28T03:11:17.854Z,10.38
2022-09-28T03:13:47.763Z,10.35
2022-09-28T03:16:18.593Z,10.32
2022-09-28T03:18:48.838Z,10.29
2022-09-28T03:21:16.998Z,10.26
2022-09-28T03:23:47.028Z,10.22
2022-09-28T03:26:17.699Z,10.18
2022-09-28T03:28:46.644Z,10.15
2022-09-28T03:31:18.895Z,10.12
2022-09-28T03:33:47.796Z,10.11
2022-09-28T03:36:16.167Z,10.09
2022-09-28T03:38:44.636Z,10.08
2022-09-28T03:41:12.214Z,10.04
2022-09-28T03:43:42.142Z,9.99
2022-09-28T03:46:10.147Z,9.95
2022-09-28T03:48:43.983Z,9.93
2022-09-28T03:51:14.168Z,9.90
2022-09-28T03:53:42.107Z,9.88
2022-09-28T03:56:15.302Z,9.88
2022-09-28T03:58:43.426Z,9.86
2022-09-28T04:01:16.783Z,9.86
2022-09-28T04:03:47.081Z,9.84
2022-09-28T04:06:15.043Z,9.82
2022-09-28T04:08:43.129Z,9.81
2022-09-28T04:11:10.982Z,9.81
2022-09-28T04:13:38.969Z,9.83
2022-09-28T04:16:11.467Z,9.84
2022-09-28T04:18:39.901Z,9.87
2022-09-28T04:21:21.281Z,9.90
2022-09-28T04:23:58.985Z,9.93
2022-09-28T04:26:28.005Z,9.93
2022-09-28T04:29:13.774Z,9.95
2022-09-28T04:31:52.046Z,9.97
2022-09-28T04:34:23.447Z,9.99
2022-09-28T04:36:51.499Z,10.02
2022-09-28T04:39:20.074Z,10.05
2022-09-28T04:41:51.001Z,10.09
2022-09-28T04:44:18.633Z,10.13
2022-09-28T04:46:48.280Z,10.16
2022-09-28T04:49:31.142Z,10.17
2022-09-28T04:52:26.864Z,10.20
2022-09-28T04:54:55.002Z,10.24
2022-09-28T04:57:24.188Z,10.28
2022-09-28T04:59:51.569Z,10.33
2022-09-28T05:02:19.986Z,10.41
2022-09-28T05:05:25.682Z,10.52
2022-09-28T05:08:09.675Z,10.61
2022-09-28T05:10:40.107Z,10.71
2022-09-28T05:13:08.793Z,10.81
2022-09-28T05:15:38.066Z,10.93
2022-09-28T05:18:06.445Z,11.08
2022-09-28T05:20:48.513Z,11.27
2022-09-28T05:23:16.639Z,11.38
2022-09-28T05:25:45.461Z,11.46
2022-09-28T05:28:25.004Z,11.53
2022-09-28T05:31:11.416Z,11.51
2022-09-28T05:34:06.190Z,11.52
2022-09-28T05:36:34.164Z,11.59
2022-09-28T05:39:03.676Z,11.66
2022-09-28T05:41:31.337Z,11.73
2022-09-28T05:44:00.540Z,11.82
2022-09-28T05:46:29.603Z,11.90
2022-09-28T05:49:00.011Z,11.97
2022-09-28T05:51:27.926Z,11.98
2022-09-28T05:53:56.063Z,11.96
2022-09-28T05:56:25.447Z,11.92
2022-09-28T05:58:53.744Z,11.85
2022-09-28T06:01:22.920Z,11.87
2022-09-28T06:03:50.628Z,11.91
2022-09-28T06:06:18.618Z,11.96
2022-09-28T06:08:48.124Z,12.02
2022-09-28T06:11:33.798Z,12.09
2022-09-28T06:14:07.340Z,12.19
2022-09-28T06:16:38.202Z,12.30
2022-09-28T06:19:08.762Z,12.45
2022-09-28T06:21:54.546Z,12.71
2022-09-28T06:24:22.232Z,12.97
2022-09-28T06:26:49.415Z,13.14
2022-09-28T06:29:19.646Z,13.21
2022-09-28T06:31:47.975Z,13.38
2022-09-28T06:34:15.589Z,13.56
2022-09-28T06:36:44.584Z,13.64
2022-09-28T06:39:12.254Z,13.76
2022-09-28T06:41:41.552Z,14.02
2022-09-28T06:44:17.145Z,14.39
2022-09-28T06:46:52.046Z,14.80
2022-09-28T06:49:55.765Z,15.42
2022-09-28T06:52:50.245Z,16.04
2022-09-28T06:55:42.579Z,16.56
2022-09-28T06:58:12.208Z,17.00
2022-09-28T07:00:40.881Z,16.92
2022-09-28T07:03:11.872Z,16.86
2022-09-28T07:05:59.770Z,16.66
2022-09-28T07:09:28.342Z,16.43
2022-09-28T07:12:13.076Z,16.37
2022-09-28T07:15:01.557Z,16.84
2022-09-28T07:17:29.419Z,17.31
2022-09-28T07:20:10.448Z,17.34
2022-09-28T07:22:44.713Z,16.86
2022-09-28T07:25:18.005Z,16.31
2022-09-28T07:28:02.423Z,16.04
2022-09-28T07:30:48.732Z,15.85
2022-09-28T07:33:40.010Z,15.46
2022-09-28T07:36:34.561Z,14.94
2022-09-28T07:39:02.947Z,14.95
2022-09-28T07:41:33.683Z,15.01
2022-09-28T07:44:06.530Z,14.83
2022-09-28T07:46:36.907Z,15.23
2022-09-28T07:49:23.486Z,15.76
2022-09-28T07:52:00.151Z,16.15
2022-09-28T07:54:27.458Z,16.20
2022-09-28T07:57:23.874Z,16.41
2022-09-28T08:00:10.784Z,16.43
2022-09-28T08:02:46.049Z,16.42
2022-09-28T08:05:17.628Z,16.75
2022-09-28T08:07:45.057Z,16.75
2022-09-28T08:10:12.749Z,16.78
2022-09-28T08:13:03.229Z,17.10
2022-09-28T08:15:38.236Z,17.24
2022-09-28T08:18:28.998Z,17.44
2022-09-28T08:21:15.233Z,17.46
2022-09-28T08:23:43.482Z,17.65
2022-09-28T08:26:15.369Z,17.62
2022-09-28T08:28:44.989Z,17.44
2022-09-28T08:31:41.521Z,17.38
2022-09-28T08:34:13.942Z,17.55
2022-09-28T08:36:59.878Z,17.32
2022-09-28T08:39:41.823Z,17.53
2022-09-28T08:42:35.327Z,17.65
2022-09-28T08:45:25.676Z,17.78
2022-09-28T08:49:23.827Z,17.97
2022-09-28T08:52:18.367Z,18.51
2022-09-28T08:55:04.289Z,18.86
2022-09-28T08:57:56.179Z,19.34
2022-09-28T09:00:39.505Z,19.61
2022-09-28T09:03:14.182Z,19.60
2022-09-28T09:06:22.491Z,19.53
2022-09-28T09:09:05.368Z,19.22
2022-09-28T09:12:13.977Z,18.97
2022-09-28T09:14:53.532Z,18.70
2022-09-28T09:17:43.689Z,18.61
2022-09-28T09:20:45.091Z,18.75
2022-09-28T09:23:17.607Z,19.20
2022-09-28T09:25:54.402Z,19.53
2022-09-28T09:28:44.499Z,19.90
2022-09-28T09:31:21.954Z,20.19
2022-09-28T09:34:20.511Z,20.28
2022-09-28T09:37:16.499Z,20.20
2022-09-28T09:39:50.930Z,20.32
2022-09-28T09:42:58.346Z,20.37
2022-09-28T09:45:54.213Z,20.53
2022-09-28T09:49:03.447Z,20.58
2022-09-28T09:51:59.214Z,20.42
2022-09-28T09:54:50.434Z,20.34
2022-09-28T09:57:41.550Z,19.98
2022-09-28T10:00:27.519Z,19.92
2022-09-28T10:03:03.589Z,19.72
2022-09-28T10:05:36.858Z,19.44
2022-09-28T10:08:14.871Z,19.26
2022-09-28T10:10:54.976Z,19.19
2022-09-28T10:13:22.996Z,19.30
2022-09-28T10:15:51.040Z,19.24
2022-09-28T10:18:23.049Z,19.14
2022-09-28T10:21:16.726Z,18.95
2022-09-28T10:24:02.255Z,18.65
2022-09-28T10:26:38.861Z,18.38
2022-09-28T10:29:17.416Z,18.11
2022-09-28T10:31:50.288Z,17.90
2022-09-28T10:34:30.021Z,17.73
2022-09-28T10:37:06.365Z,17.63
2022-09-28T10:39:52.965Z,17.48
2022-09-28T10:42:27.198Z,17.47
2022-09-28T10:45:24.140Z,17.48
2022-09-28T10:47:51.502Z,17.64
2022-09-28T10:50:27.572Z,17.88
2022-09-28T10:53:19.922Z,18.27
2022-09-28T10:56:21.841Z,18.66
2022-09-28T10:58:53.223Z,18.91
2022-09-28T11:01:32.611Z,19.16
2022-09-28T11:04:07.576Z,19.58
2022-09-28T11:06:39.840Z,20.27
2022-09-28T11:09:29.845Z,20.99
2022-09-28T11:12:02.786Z,22.01
2022-09-28T11:14:42.165Z,22.99
2022-09-28T11:17:32.421Z,23.85
2022-09-28T11:20:21.495Z,24.38
2022-09-28T11:22:57.791Z,24.23
2022-09-28T11:25:29.079Z,24.97
2022-09-28T11:28:00.795Z,25.53
2022-09-28T11:30:51.737Z,25.69
2022-09-28T11:33:28.712Z,26.03
2022-09-28T11:36:18.909Z,25.99
2022-09-28T11:39:02.242Z,25.68
2022-09-28T11:41:54.455Z,25.07
2022-09-28T11:44:31.010Z,24.76
2022-09-28T11:47:28.022Z,24.24
2022-09-28T11:50:29.281Z,23.80
2022-09-28T11:53:24.571Z,24.24
2022-09-28T11:56:14.357Z,25.04
2022-09-28T11:58:46.764Z,25.88
2022-09-28T12:01:48.676Z,26.50
2022-09-28T12:04:46.058Z,27.22
2022-09-28T12:07:35.551Z,27.32
2022-09-28T12:10:14.421Z,27.13
2022-09-28T12:13:40.119Z,26.96
2022-09-28T12:17:03.672Z,26.32
2022-09-28T12:19:31.900Z,26.44
2022-09-28T12:22:32.869Z,25.77
2022-09-28T12:25:03.593Z,25.47
2022-09-28T12:28:01.856Z,25.14
2022-09-28T12:30:35.094Z,24.77
2022-09-28T12:33:08.913Z,24.99
2022-09-28T12:35:44.057Z,25.22
2022-09-28T12:39:08.462Z,25.47
2022-09-28T12:41:46.823Z,25.14
2022-09-28T12:44:42.201Z,24.59
2022-09-28T12:47:41.721Z,24.16
2022-09-28T12:50:38.788Z,23.58
2022-09-28T12:53:41.210Z,23.38
2022-09-28T12:56:15.690Z,23.19
2022-09-28T12:59:12.379Z,23.05
2022-09-28T13:01:58.901Z,22.82
2022-09-28T13:04:48.634Z,22.59
2022-09-28T13:07:27.618Z,22.47
2022-09-28T13:09:58.094Z,22.42
2022-09-28T13:12:46.423Z,22.38
2022-09-28T13:15:16.605Z,22.25
2022-09-28T13:18:14.579Z,22.17
2022-09-28T13:20:49.767Z,21.93
2022-09-28T13:24:00.723Z,21.63
2022-09-28T13:26:40.183Z,21.32
2022-09-28T13:29:14.102Z,21.17
2022-09-28T13:31:59.566Z,20.92
2022-09-28T13:34:33.122Z,20.57
2022-09-28T13:37:25.333Z,20.26
2022-09-28T13:39:52.658Z,20.06
2022-09-28T13:42:24.318Z,19.74
2022-09-28T13:45:20.967Z,19.56
2022-09-28T13:48:10.403Z,19.36
2022-09-28T13:50:56.010Z,19.23
2022-09-28T13:53:44.763Z,19.27
2022-09-28T13:56:37.619Z,19.19
2022-09-28T13:59:14.178Z,19.08
2022-09-28T14:01:55.430Z,18.94
2022-09-28T14:04:43.906Z,18.93
2022-09-28T14:07:19.747Z,18.81
2022-09-28T14:10:07.501Z,18.72
2022-09-28T14:12:34.655Z,18.65
2022-09-28T14:15:06.615Z,18.57
2022-09-28T14:17:52.560Z,18.54
2022-09-28T14:20:22.773Z,18.44
2022-09-28T14:22:57.519Z,18.32
2022-09-28T14:25:27.942Z,18.21
2022-09-28T14:28:27.154Z,18.13
2022-09-28T14:30:59.034Z,18.03
2022-09-28T14:33:28.436Z,18.01
2022-09-28T14:36:07.492Z,18.01
2022-09-28T14:39:06.991Z,17.97
2022-09-28T14:41:41.417Z,17.93
2022-09-28T14:44:14.037Z,17.94
2022-09-28T14:46:46.151Z,17.94
2022-09-28T14:49:19.760Z,17.89
2022-09-28T14:51:52.870Z,17.81
2022-09-28T14:54:26.087Z,17.69
2022-09-28T14:56:53.470Z,17.58
2022-09-28T14:59:36.302Z,17.42
2022-09-28T15:02:14.597Z,17.28
2022-09-28T15:05:08.321Z,17.15
2022-09-28T15:07:51.424Z,17.04
2022-09-28T15:10:27.513Z,16.99
2022-09-28T15:12:56.459Z,16.90
2022-09-28T15:15:36.778Z,16.81
2022-09-28T15:18:42.138Z,16.88
2022-09-28T15:21:13.304Z,17.11
2022-09-28T15:23:43.513Z,17.14
2022-09-28T15:26:21.838Z,17.01
2022-09-28T15:28:49.038Z,16.83
2022-09-28T15:31:23.934Z,16.59
2022-09-28T15:34:09.705Z,16.37
2022-09-28T15:36:42.009Z,16.08
2022-09-28T15:39:39.791Z,15.87
2022-09-28T15:42:06.976Z,15.66
2022-09-28T15:44:36.668Z,15.52
2022-09-28T15:47:24.788Z,15.35
2022-09-28T15:50:00.980Z,15.16
2022-09-28T15:52:46.723Z,15.00
2022-09-28T15:55:28.889Z,14.84
2022-09-28T15:58:10.484Z,14.69
2022-09-28T16:00:39.373Z,14.57
2022-09-28T16:03:06.714Z,14.46
2022-09-28T16:05:46.351Z,14.36
2022-09-28T16:08:24.225Z,14.25
2022-09-28T16:11:26.096Z,14.13
2022-09-28T16:14:08.396Z,14.02
2022-09-28T16:16:46.359Z,13.91
2022-09-28T16:19:29.249Z,13.82
2022-09-28T16:21:59.073Z,13.74
2022-09-28T16:24:27.931Z,13.64
2022-09-28T16:26:56.467Z,13.53
2022-09-28T16:29:40.035Z,13.43
2022-09-28T16:32:25.994Z,13.33
2022-09-28T16:35:11.244Z,13.21
2022-09-28T16:37:43.181Z,13.08
2022-09-28T16:40:12.997Z,12.93
2022-09-28T16:42:48.681Z,12.76
2022-09-28T16:45:19.695Z,12.61
2022-09-28T16:47:52.329Z,12.47
2022-09-28T16:50:20.991Z,12.35
2022-09-28T16:53:35.508Z,12.27
2022-09-28T16:56:04.352Z,12.17
2022-09-28T16:58:31.592Z,12.09
2022-09-28T17:01:00.007Z,11.99
2022-09-28T17:03:28.473Z,11.89
2022-09-28T17:05:56.299Z,11.80
2022-09-28T17:08:25.115Z,11.70
2022-09-28T17:11:22.575Z,11.64
2022-09-28T17:13:48.250Z,11.59
2022-09-28T17:16:18.108Z,11.57
2022-09-28T17:18:45.659Z,11.55
2022-09-28T17:21:16.066Z,11.54
2022-09-28T17:23:44.751Z,11.51
2022-09-28T17:26:33.054Z,11.47
2022-09-28T17:29:01.605Z,11.41
2022-09-28T17:31:29.505Z,11.37
2022-09-28T17:33:56.733Z,11.32
2022-09-28T17:36:25.416Z,11.27
2022-09-28T17:38:52.868Z,11.21
2022-09-28T17:41:20.982Z,11.17
2022-09-28T17:43:49.204Z,11.12
2022-09-28T17:46:27.832Z,11.07
2022-09-28T17:48:58.934Z,10.99
2022-09-28T17:51:32.023Z,10.93
2022-09-28T17:54:00.658Z,10.88
2022-09-28T17:56:32.061Z,10.84
2022-09-28T17:59:05.403Z,10.80
2022-09-28T18:01:34.124Z,10.77
2022-09-28T18:04:04.504Z,10.75
2022-09-28T18:06:36.595Z,10.76
2022-09-28T18:09:05.041Z,10.76
2022-09-28T18:11:36.569Z,10.76
2022-09-28T18:14:06.728Z,10.73
2022-09-28T18:16:36.552Z,10.72
2022-09-28T18:19:03.652Z,10.74
2022-09-28T18:21:33.555Z,10.73
2022-09-28T18:24:01.211Z,10.71
2022-09-28T18:26:28.872Z,10.69
2022-09-28T18:28:55.991Z,10.68
2022-09-28T18:31:23.528Z,10.66
2022-09-28T18:33:50.631Z,10.64
2022-09-28T18:36:17.684Z,10.68
2022-09-28T18:38:44.827Z,10.70
2022-09-28T18:41:15.114Z,10.76
2022-09-28T18:43:48.297Z,10.75
2022-09-28T18:46:17.660Z,10.71
2022-09-28T18:48:46.949Z,10.67
2022-09-28T18:51:14.079Z,10.64
2022-09-28T18:53:41.247Z,10.64
2022-09-28T18:56:11.733Z,10.65
2022-09-28T18:58:40.687Z,10.66
2022-09-28T19:01:32.162Z,10.64
2022-09-28T19:04:04.728Z,10.60
2022-09-28T19:06:33.855Z,10.58
2022-09-28T19:09:01.001Z,10.56
2022-09-28T19:11:28.824Z,10.54
2022-09-28T19:13:56.334Z,10.51
2022-09-28T19:16:28.779Z,10.48
2022-09-28T19:18:57.998Z,10.41
2022-09-28T19:21:26.688Z,10.38
2022-09-28T19:23:54.917Z,10.33
2022-09-28T19:26:25.146Z,10.30
2022-09-28T19:28:52.844Z,10.30
2022-09-28T19:31:21.226Z,10.32
2022-09-28T19:33:49.496Z,10.34
2022-09-28T19:36:23.202Z,10.35
2022-09-28T19:38:51.854Z,10.36
2022-09-28T19:41:43.779Z,10.38
2022-09-28T19:44:19.457Z,10.38
2022-09-28T19:46:46.864Z,10.39
2022-09-28T19:49:21.606Z,10.38
2022-09-28T19:52:11.572Z,10.37
2022-09-28T19:54:37.968Z,10.36
2022-09-28T19:57:07.089Z,10.33
2022-09-28T19:59:36.209Z,10.30
2022-09-28T20:02:07.566Z,10.28
2022-09-28T20:04:34.970Z,10.24
2022-09-28T20:07:03.442Z,10.22
2022-09-28T20:09:32.453Z,10.20
2022-09-28T20:11:59.820Z,10.17
2022-09-28T20:14:32.874Z,10.16
2022-09-28T20:17:03.668Z,10.14
2022-09-28T20:19:30.933Z,10.12
2022-09-28T20:22:02.313Z,10.10
2022-09-28T20:24:30.911Z,10.10
2022-09-28T20:26:58.564Z,10.11
2022-09-28T20:29:26.385Z,10.13
2022-09-28T20:31:53.700Z,10.15
2022-09-28T20:34:21.645Z,10.15
2022-09-28T20:36:49.207Z,10.14
2022-09-28T20:39:17.415Z,10.12
2022-09-28T20:41:46.778Z,10.10
2022-09-28T20:44:14.037Z,10.09
2022-09-28T20:46:43.528Z,10.06
2022-09-28T20:49:11.111Z,10.05
2022-09-28T20:51:38.351Z,10.00
2022-09-28T20:54:05.850Z,9.95
2022-09-28T20:56:37.800Z,9.90
2022-09-28T20:59:11.103Z,9.86
2022-09-28T21:01:39.499Z,9.84
2022-09-28T21:04:08.887Z,9.79
2022-09-28T21:06:39.474Z,9.75
2022-09-28T21:09:08.239Z,9.69
2022-09-28T21:11:36.438Z,9.63
2022-09-28T21:14:06.375Z,9.57
2022-09-28T21:16:35.163Z,9.53
2022-09-28T21:19:03.109Z,9.49
2022-09-28T21:21:31.594Z,9.48
2022-09-28T21:23:59.172Z,9.47
2022-09-28T21:26:30.911Z,9.47
2022-09-28T21:29:00.898Z,9.46
2022-09-28T21:31:38.769Z,9.43
2022-09-28T21:34:06.859Z,9.40
2022-09-28T21:36:34.395Z,9.38
2022-09-28T21:39:01.632Z,9.36
2022-09-28T21:41:29.473Z,9.35
2022-09-28T21:43:57.449Z,9.33
2022-09-28T21:46:25.175Z,9.31
2022-09-28T21:48:55.828Z,9.29
2022-09-28T21:51:24.210Z,9.26
2022-09-28T21:53:52.295Z,9.23
2022-09-28T21:56:20.387Z,9.22
2022-09-28T21:58:47.921Z,9.19
2022-09-28T22:01:25.084Z,9.15
2022-09-28T22:03:55.051Z,9.11
2022-09-28T22:06:24.582Z,9.08
2022-09-28T22:08:52.556Z,9.05
2022-09-28T22:11:23.611Z,9.02
2022-09-28T22:13:54.272Z,8.99
2022-09-28T22:16:26.147Z,8.96
2022-09-28T22:18:53.989Z,8.93
2022-09-28T22:21:33.113Z,8.93
2022-09-28T22:24:04.457Z,8.90
2022-09-28T22:26:33.636Z,8.84
2022-09-28T22:29:04.596Z,8.80
2022-09-28T22:31:35.439Z,8.76
2022-09-28T22:34:04.525Z,8.72
2022-09-28T22:36:33.345Z,8.71
2022-09-28T22:39:01.505Z,8.69
2022-09-28T22:41:29.708Z,8.66
2022-09-28T22:43:58.875Z,8.65
2022-09-28T22:46:28.876Z,8.65
2022-09-28T22:48:58.523Z,8.65
2022-09-28T22:51:27.982Z,8.62
2022-09-28T22:53:56.427Z,8.56
2022-09-28T22:56:24.881Z,8.52
2022-09-28T22:58:52.573Z,8.47
2022-09-28T23:01:23.196Z,8.41
2022-09-28T23:03:53.327Z,8.37
2022-09-28T23:06:24.233Z,8.32
2022-09-28T23:08:53.524Z,8.29
2022-09-28T23:11:21.927Z,8.28
2022-09-28T23:13:54.124Z,8.27
2022-09-28T23:16:24.467Z,8.26
2022-09-28T23:18:55.221Z,8.26
2022-09-28T23:21:25.749Z,8.26
2022-09-28T23:23:56.004Z,8.25
2022-09-28T23:26:27.030Z,8.22
2022-09-28T23:28:55.545Z,8.21
2022-09-28T23:31:26.778Z,8.19
2022-09-28T23:34:04.990Z,8.17
2022-09-28T23:36:33.584Z,8.19
2022-09-28T23:39:02.828Z,8.21
2022-09-28T23:41:30.517Z,8.23
2022-09-28T23:43:59.484Z,8.22
2022-09-28T23:46:28.451Z,8.21
2022-09-28T23:48:58.016Z,8.18
2022-09-28T23:51:26.104Z,8.18
2022-09-28T23:53:55.115Z,8.19
2022-09-28T23:56:24.296Z,8.19
2022-09-28T23:58:52.585Z,8.16
